createdAt,value
2023-05-11T00:00:50.960Z,59.97
2023-05-11T00:03:17.824Z,55.33
2023-05-11T00:05:48.857Z,53.15
2023-05-11T00:08:17.150Z,53.33
2023-05-11T00:10:47.927Z,53.42
2023-05-11T00:13:14.680Z,49.85
2023-05-11T00:15:41.641Z,50.70
2023-05-11T00:18:08.379Z,47.83
2023-05-11T00:20:35.054Z,49.65
2023-05-11T00:23:01.799Z,48.13
2023-05-11T00:25:28.473Z,51.55
2023-05-11T00:27:55.226Z,47.97
2023-05-11T00:30:21.995Z,48.70
2023-05-11T00:32:49.950Z,46.63
2023-05-11T00:35:16.601Z,47.58
2023-05-11T00:37:43.200Z,50.40
2023-05-11T00:40:10.189Z,47.28
2023-05-11T00:42:36.871Z,46.45
2023-05-11T00:45:06.606Z,50.55
2023-05-11T00:47:33.536Z,44.95
2023-05-11T00:50:00.547Z,42.15
2023-05-11T00:52:27.336Z,41.33
2023-05-11T00:54:54.063Z,38.03
2023-05-11T00:57:21.354Z,39.15
2023-05-11T00:59:49.447Z,40.35
2023-05-11T01:02:16.730Z,39.47
2023-05-11T01:04:43.926Z,36.53
2023-05-11T01:07:34.458Z,39.55
2023-05-11T01:10:10.213Z,38.63
2023-05-11T01:12:58.861Z,39.33
2023-05-11T01:15:41.083Z,40.58
2023-05-11T01:18:16.597Z,34.47
2023-05-11T01:20:46.236Z,36.90
2023-05-11T01:23:25.664Z,34.70
2023-05-11T01:26:07.653Z,38.60
2023-05-11T01:29:02.386Z,36.75
2023-05-11T01:31:31.960Z,41.30
2023-05-11T01:34:06.304Z,39.38
2023-05-11T01:36:37.654Z,40.92
2023-05-11T01:39:10.442Z,41.78
2023-05-11T01:41:40.098Z,39.95
2023-05-11T01:44:10.019Z,38.03
2023-05-11T01:46:38.103Z,39.55
2023-05-11T01:49:07.500Z,36.15
2023-05-11T01:51:37.548Z,32.47
2023-05-11T01:54:08.829Z,33.22
2023-05-11T01:56:37.757Z,39.90
2023-05-11T01:59:04.978Z,34.88
2023-05-11T02:01:34.044Z,33.40
2023-05-11T02:04:02.299Z,34.92
2023-05-11T02:06:31.104Z,33.80
2023-05-11T02:08:59.472Z,36.80
2023-05-11T02:11:27.921Z,35.42
2023-05-11T02:13:57.080Z,38.40
2023-05-11T02:16:25.344Z,38.38
2023-05-11T02:18:54.271Z,35.08
2023-05-11T02:21:22.107Z,36.70
2023-05-11T02:23:49.971Z,40.67
2023-05-11T02:26:17.062Z,39.50
2023-05-11T02:28:44.155Z,37.58
2023-05-11T02:31:17.705Z,30.48
2023-05-11T02:33:48.217Z,31.05
2023-05-11T02:36:19.296Z,28.58
2023-05-11T02:38:47.571Z,28.35
2023-05-11T02:41:18.332Z,28.92
2023-05-11T02:43:49.245Z,27.83
2023-05-11T02:46:20.118Z,23.95
2023-05-11T02:48:54.505Z,31.83
2023-05-11T02:51:26.523Z,33.63
2023-05-11T02:53:55.904Z,27.02
2023-05-11T02:56:24.572Z,30.15
2023-05-11T02:58:51.160Z,48.90
2023-05-11T03:01:18.412Z,35.10
2023-05-11T03:03:45.371Z,28.92
2023-05-11T03:06:12.477Z,33.58
2023-05-11T03:08:40.562Z,29.98
2023-05-11T03:11:09.109Z,29.10
2023-05-11T03:13:35.937Z,33.10
2023-05-11T03:16:03.139Z,26.73
2023-05-11T03:18:30.962Z,27.52
2023-05-11T03:20:59.379Z,25.75
2023-05-11T03:23:26.681Z,33.50
2023-05-11T03:25:54.225Z,28.20
2023-05-11T03:28:24.199Z,22.95
2023-05-11T03:30:52.986Z,25.67
2023-05-11T03:33:21.008Z,27.58
2023-05-11T03:35:49.842Z,27.92
2023-05-11T03:38:17.290Z,36.55
2023-05-11T03:40:45.777Z,32.38
2023-05-11T03:43:16.417Z,31.75
2023-05-11T03:45:44.124Z,25.67
2023-05-11T03:48:11.916Z,37.10
2023-05-11T03:50:39.396Z,36.90
2023-05-11T03:53:06.638Z,26.55
2023-05-11T03:55:33.407Z,25.80
2023-05-11T03:58:01.035Z,22.42
2023-05-11T04:00:28.608Z,34.65
2023-05-11T04:02:55.359Z,27.95
2023-05-11T04:05:21.903Z,27.73
2023-05-11T04:07:50.374Z,38.03
2023-05-11T04:10:17.083Z,33.38
2023-05-11T04:12:43.699Z,35.45
2023-05-11T04:15:10.682Z,35.33
2023-05-11T04:17:37.284Z,25.55
2023-05-11T04:20:04.104Z,34.38
2023-05-11T04:22:30.779Z,28.75
2023-05-11T04:24:57.347Z,26.65
2023-05-11T04:27:23.903Z,27.48
2023-05-11T04:29:50.728Z,26.13
2023-05-11T04:32:17.383Z,23.13
2023-05-11T04:34:44.042Z,24.60
2023-05-11T04:37:10.693Z,25.67
2023-05-11T04:39:37.289Z,25.52
2023-05-11T04:42:04.051Z,23.50
2023-05-11T04:44:30.778Z,25.33
2023-05-11T04:46:57.484Z,21.65
2023-05-11T04:49:24.214Z,20.15
2023-05-11T04:51:50.866Z,21.20
2023-05-11T04:54:17.529Z,21.15
2023-05-11T04:56:44.147Z,19.50
2023-05-11T04:59:10.838Z,17.63
2023-05-11T05:01:37.705Z,17.77
2023-05-11T05:04:04.425Z,21.10
2023-05-11T05:06:32.138Z,16.83
2023-05-11T05:08:58.773Z,20.65
2023-05-11T05:11:25.534Z,19.35
2023-05-11T05:13:52.160Z,19.58
2023-05-11T05:16:18.903Z,19.85
2023-05-11T05:18:45.578Z,18.98
2023-05-11T05:21:12.164Z,19.17
2023-05-11T05:23:39.020Z,20.35
2023-05-11T05:26:05.653Z,17.98
2023-05-11T05:28:32.286Z,20.85
2023-05-11T05:30:58.971Z,17.08
2023-05-11T05:33:25.650Z,18.45
2023-05-11T05:35:52.303Z,19.92
2023-05-11T05:38:20.154Z,18.55
2023-05-11T05:40:47.003Z,17.40
2023-05-11T05:43:13.821Z,20.00
2023-05-11T05:45:40.430Z,18.42
2023-05-11T05:48:07.174Z,20.23
2023-05-11T05:50:33.870Z,19.70
2023-05-11T05:53:00.671Z,20.73
2023-05-11T05:55:27.375Z,17.92
2023-05-11T05:57:54.058Z,21.35
2023-05-11T06:00:20.910Z,21.55
2023-05-11T06:02:47.856Z,19.35
2023-05-11T06:05:14.463Z,20.15
2023-05-11T06:07:41.054Z,19.90
2023-05-11T06:10:07.663Z,20.33
2023-05-11T06:12:34.340Z,19.42
2023-05-11T06:15:01.250Z,19.35
2023-05-11T06:17:28.422Z,18.90
2023-05-11T06:19:55.165Z,21.30
2023-05-11T06:22:21.916Z,19.13
2023-05-11T06:24:48.608Z,17.33
2023-05-11T06:27:17.940Z,20.27
2023-05-11T06:29:44.910Z,16.42
2023-05-11T06:32:12.079Z,19.05
2023-05-11T06:34:39.346Z,16.55
2023-05-11T06:37:06.104Z,17.10
2023-05-11T06:39:36.221Z,15.70
2023-05-11T06:42:06.455Z,14.93
2023-05-11T06:44:34.196Z,14.88
2023-05-11T06:47:01.053Z,13.02
2023-05-11T06:49:27.660Z,13.35
2023-05-11T06:51:54.225Z,10.80
2023-05-11T06:54:20.864Z,10.30
2023-05-11T06:56:47.403Z,11.32
2023-05-11T06:59:14.238Z,11.32
2023-05-11T07:01:41.149Z,12.35
2023-05-11T07:04:07.945Z,13.13
2023-05-11T07:06:34.674Z,12.00
2023-05-11T07:09:01.541Z,12.40
2023-05-11T07:11:28.285Z,13.38
2023-05-11T07:13:55.005Z,13.05
2023-05-11T07:16:21.659Z,12.43
2023-05-11T07:18:48.357Z,12.73
2023-05-11T07:21:15.333Z,11.30
2023-05-11T07:23:42.749Z,10.18
2023-05-11T07:26:09.453Z,9.50
2023-05-11T07:28:37.036Z,9.40
2023-05-11T07:31:04.076Z,10.63
2023-05-11T07:33:30.923Z,10.10
2023-05-11T07:35:57.909Z,8.35
2023-05-11T07:38:24.513Z,10.15
2023-05-11T07:40:51.108Z,9.27
2023-05-11T07:43:17.658Z,9.50
2023-05-11T07:45:44.298Z,9.10
2023-05-11T07:48:11.230Z,9.75
2023-05-11T07:50:38.096Z,10.63
2023-05-11T07:53:04.811Z,9.52
2023-05-11T07:55:31.443Z,10.10
2023-05-11T07:57:58.154Z,9.20
2023-05-11T08:00:24.925Z,8.90
2023-05-11T08:02:51.704Z,9.10
2023-05-11T08:05:19.798Z,8.43
2023-05-11T08:07:47.221Z,8.60
2023-05-11T08:10:13.912Z,8.38
2023-05-11T08:12:40.616Z,9.77
2023-05-11T08:15:08.200Z,10.05
2023-05-11T08:17:35.710Z,10.70
2023-05-11T08:20:06.759Z,9.93
2023-05-11T08:22:33.449Z,8.98
2023-05-11T08:24:59.983Z,8.30
2023-05-11T08:27:26.562Z,9.52
2023-05-11T08:29:53.099Z,8.27
2023-05-11T08:32:19.903Z,7.60
2023-05-11T08:34:46.835Z,8.43
2023-05-11T08:37:13.610Z,7.65
2023-05-11T08:39:47.406Z,8.27
2023-05-11T08:42:18.555Z,7.43
2023-05-11T08:44:45.474Z,8.13
2023-05-11T08:49:42.678Z,9.13
2023-05-11T08:52:10.694Z,8.32
2023-05-11T08:54:37.326Z,7.82
2023-05-11T08:57:04.391Z,9.00
2023-05-11T08:59:31.034Z,7.55
2023-05-11T09:01:59.343Z,7.97
2023-05-11T09:04:26.995Z,9.00
2023-05-11T09:06:54.810Z,8.20
2023-05-11T09:09:21.591Z,9.02
2023-05-11T09:11:48.952Z,7.47
2023-05-11T09:14:15.758Z,7.13
2023-05-11T09:16:42.372Z,8.23
2023-05-11T09:19:15.220Z,8.35
2023-05-11T09:21:42.120Z,7.05
2023-05-11T09:24:12.873Z,6.78
2023-05-11T09:26:39.729Z,7.15
2023-05-11T09:29:06.691Z,7.45
2023-05-11T09:31:38.794Z,8.63
2023-05-11T09:34:22.990Z,8.05
2023-05-11T09:36:56.995Z,6.95
2023-05-11T09:39:42.035Z,8.75
2023-05-11T09:42:17.264Z,8.65
2023-05-11T09:44:45.696Z,8.52
2023-05-11T09:47:16.382Z,7.65
2023-05-11T09:49:44.739Z,8.13
2023-05-11T09:52:21.061Z,8.82
2023-05-11T09:54:51.630Z,10.32
2023-05-11T09:57:24.445Z,10.98
2023-05-11T09:59:51.437Z,10.38
2023-05-11T10:02:29.717Z,10.63
2023-05-11T10:05:01.691Z,9.98
2023-05-11T10:07:34.160Z,9.23
2023-05-11T10:10:03.480Z,9.90
2023-05-11T10:12:32.759Z,9.40
2023-05-11T10:15:08.508Z,9.55
2023-05-11T10:17:36.686Z,8.68
2023-05-11T10:20:05.743Z,8.52
2023-05-11T10:22:32.608Z,8.13
2023-05-11T10:24:59.942Z,6.70
2023-05-11T10:27:27.084Z,6.80
2023-05-11T10:29:54.484Z,6.80
2023-05-11T10:32:21.519Z,7.22
2023-05-11T10:34:50.190Z,6.93
2023-05-11T10:37:17.567Z,7.43
2023-05-11T10:39:48.439Z,7.07
2023-05-11T10:42:27.908Z,6.75
2023-05-11T10:45:19.038Z,6.13
2023-05-11T10:48:06.139Z,6.35
2023-05-11T10:50:42.953Z,6.60
2023-05-11T10:53:15.966Z,5.50
2023-05-11T10:56:17.999Z,5.55
2023-05-11T10:58:54.628Z,5.15
2023-05-11T11:01:38.194Z,6.00
2023-05-11T11:04:06.950Z,6.22
2023-05-11T11:06:35.744Z,5.05
2023-05-11T11:09:05.272Z,5.80
2023-05-11T11:11:33.209Z,4.63
2023-05-11T11:14:02.506Z,4.70
2023-05-11T11:16:30.201Z,4.20
2023-05-11T11:19:29.238Z,5.03
2023-05-11T11:22:00.617Z,4.63
2023-05-11T11:24:39.197Z,5.05
2023-05-11T11:27:07.021Z,6.43
2023-05-11T11:29:38.156Z,4.25
2023-05-11T11:32:20.137Z,4.07
2023-05-11T11:34:47.918Z,4.45
2023-05-11T11:37:16.599Z,3.97
2023-05-11T11:39:43.255Z,3.72
2023-05-11T11:42:12.345Z,3.88
2023-05-11T11:44:40.465Z,3.35
2023-05-11T11:47:17.611Z,4.38
2023-05-11T11:49:47.159Z,3.95
2023-05-11T11:52:29.102Z,3.95
2023-05-11T11:54:59.612Z,3.72
2023-05-11T11:57:35.085Z,4.20
2023-05-11T12:00:05.557Z,3.78
2023-05-11T12:02:33.573Z,4.47
2023-05-11T12:05:09.772Z,4.10
2023-05-11T12:07:41.158Z,4.68
2023-05-11T12:10:08.112Z,5.20
2023-05-11T12:12:37.674Z,5.50
2023-05-11T12:15:06.694Z,5.60
2023-05-11T12:17:34.691Z,5.07
2023-05-11T12:20:19.046Z,4.90
2023-05-11T12:22:46.998Z,5.18
2023-05-11T12:25:15.786Z,4.82
2023-05-11T12:27:58.283Z,5.40
2023-05-11T12:30:26.826Z,4.97
2023-05-11T12:35:25.655Z,4.40
2023-05-11T12:37:52.718Z,4.30
2023-05-11T12:40:20.110Z,5.13
2023-05-11T12:42:53.899Z,4.88
2023-05-11T12:45:22.538Z,4.90
2023-05-11T12:47:51.699Z,5.15
2023-05-11T12:50:19.164Z,4.97
2023-05-11T12:52:46.159Z,5.20
2023-05-11T12:55:12.729Z,4.90
2023-05-11T12:57:40.202Z,5.65
2023-05-11T13:00:14.613Z,5.60
2023-05-11T13:02:52.859Z,5.95
2023-05-11T13:05:25.406Z,6.75
2023-05-11T13:08:04.915Z,5.65
2023-05-11T13:10:32.228Z,5.47
2023-05-11T13:12:59.263Z,5.88
2023-05-11T13:15:27.647Z,6.03
2023-05-11T13:17:59.766Z,5.78
2023-05-11T13:20:32.461Z,6.82
2023-05-11T13:23:25.615Z,6.25
2023-05-11T13:25:53.926Z,5.30
2023-05-11T13:28:23.338Z,4.78
2023-05-11T13:30:53.671Z,4.82
2023-05-11T13:33:21.105Z,5.22
2023-05-11T13:35:48.563Z,5.47
2023-05-11T13:38:15.313Z,5.43
2023-05-11T13:40:41.933Z,5.63
2023-05-11T13:43:09.174Z,5.18
2023-05-11T13:45:41.052Z,5.68
2023-05-11T13:48:07.844Z,6.22
2023-05-11T13:50:36.400Z,6.00
2023-05-11T13:53:05.389Z,5.85
2023-05-11T13:55:41.881Z,6.00
2023-05-11T13:58:10.068Z,6.82
2023-05-11T14:01:08.071Z,6.18
2023-05-11T14:03:51.313Z,7.18
2023-05-11T14:09:03.230Z,7.38
2023-05-11T14:11:34.074Z,6.63
2023-05-11T14:14:26.210Z,5.65
2023-05-11T14:19:41.220Z,6.13
2023-05-11T14:22:08.868Z,7.60
2023-05-11T14:24:38.097Z,5.32
2023-05-11T14:27:04.893Z,5.78
2023-05-11T14:29:31.658Z,6.80
2023-05-11T14:31:58.336Z,6.00
2023-05-11T14:34:25.166Z,6.30
2023-05-11T14:36:51.908Z,7.13
2023-05-11T14:39:18.632Z,7.07
2023-05-11T14:41:45.487Z,7.50
2023-05-11T14:44:12.309Z,6.75
2023-05-11T14:46:39.477Z,6.72
2023-05-11T14:49:06.241Z,5.40
2023-05-11T14:54:37.122Z,5.93
2023-05-11T14:57:04.716Z,5.45
2023-05-11T14:59:31.495Z,5.55
2023-05-11T15:01:58.158Z,5.65
2023-05-11T15:04:25.482Z,6.25
2023-05-11T15:06:52.159Z,7.15
2023-05-11T15:09:20.995Z,5.65
2023-05-11T15:11:47.763Z,5.57
2023-05-11T15:14:14.506Z,5.38
2023-05-11T15:16:41.249Z,5.97
2023-05-11T15:19:08.389Z,5.75
2023-05-11T15:21:35.207Z,5.57
2023-05-11T15:24:02.208Z,5.80
2023-05-11T15:26:29.014Z,5.65
2023-05-11T15:28:56.847Z,6.15
2023-05-11T15:31:23.770Z,6.70
2023-05-11T15:33:50.619Z,7.43
2023-05-11T15:36:17.482Z,6.63
2023-05-11T15:38:44.855Z,6.95
2023-05-11T15:41:11.904Z,6.85
2023-05-11T15:43:38.547Z,8.75
2023-05-11T15:46:05.889Z,6.95
2023-05-11T15:48:32.892Z,7.65
2023-05-11T15:51:01.121Z,7.45
2023-05-11T15:53:27.939Z,7.00
2023-05-11T15:55:55.804Z,6.65
2023-05-11T15:58:23.103Z,7.80
2023-05-11T16:00:50.025Z,8.82
2023-05-11T16:03:17.228Z,7.78
2023-05-11T16:05:44.782Z,7.82
2023-05-11T16:08:11.906Z,7.85
2023-05-11T16:10:39.003Z,8.55
2023-05-11T16:13:05.767Z,8.38
2023-05-11T16:15:33.078Z,8.07
2023-05-11T16:18:01.577Z,10.38
2023-05-11T16:22:57.110Z,9.68
2023-05-11T16:25:24.264Z,9.13
2023-05-11T16:27:51.002Z,9.85
2023-05-11T16:30:23.069Z,10.07
2023-05-11T16:32:52.456Z,9.70
2023-05-11T16:35:22.622Z,10.40
2023-05-11T16:37:49.442Z,10.50
2023-05-11T16:40:19.213Z,10.10
2023-05-11T16:42:47.330Z,14.00
2023-05-11T16:45:15.055Z,10.73
2023-05-11T16:47:42.106Z,11.05
2023-05-11T16:50:09.316Z,11.82
2023-05-11T16:52:35.937Z,13.32
2023-05-11T16:55:03.614Z,13.32
2023-05-11T16:57:31.524Z,12.50
2023-05-11T16:59:58.163Z,12.43
2023-05-11T17:02:24.940Z,12.95
2023-05-11T17:04:51.579Z,13.73
2023-05-11T17:07:18.101Z,13.95
2023-05-11T17:09:45.406Z,14.27
2023-05-11T17:12:12.067Z,14.68
2023-05-11T17:14:38.629Z,15.60
2023-05-11T17:17:07.309Z,14.23
2023-05-11T17:19:34.503Z,17.13
2023-05-11T17:22:01.144Z,19.30
2023-05-11T17:24:28.454Z,14.30
2023-05-11T17:26:55.238Z,15.77
2023-05-11T17:29:22.279Z,18.25
2023-05-11T17:31:51.314Z,16.77
2023-05-11T17:34:18.861Z,15.63
2023-05-11T17:36:45.749Z,16.83
2023-05-11T17:39:12.913Z,15.38
2023-05-11T17:41:39.666Z,15.05
2023-05-11T17:44:06.303Z,16.35
2023-05-11T17:46:32.962Z,16.40
2023-05-11T17:48:59.952Z,16.42
2023-05-11T17:51:26.578Z,16.10
2023-05-11T17:53:53.413Z,16.75
2023-05-11T17:56:20.088Z,18.98
2023-05-11T17:58:47.546Z,19.92
2023-05-11T18:01:14.225Z,20.25
2023-05-11T18:03:41.812Z,22.77
2023-05-11T18:06:08.979Z,22.13
2023-05-11T18:08:38.712Z,22.80
2023-05-11T18:11:05.334Z,24.08
2023-05-11T18:13:31.924Z,23.67
2023-05-11T18:15:59.598Z,23.90
2023-05-11T18:18:26.392Z,27.25
2023-05-11T18:20:53.728Z,27.58
2023-05-11T18:23:20.283Z,27.15
2023-05-11T18:25:46.856Z,28.48
2023-05-11T18:28:13.620Z,28.55
2023-05-11T18:30:40.358Z,26.45
2023-05-11T18:33:06.976Z,29.75
2023-05-11T18:35:34.164Z,27.05
2023-05-11T18:38:03.158Z,27.75
2023-05-11T18:40:29.697Z,26.80
2023-05-11T18:42:56.513Z,27.27
2023-05-11T18:45:23.250Z,30.30
2023-05-11T18:47:50.985Z,31.88
2023-05-11T18:50:17.777Z,30.08
2023-05-11T18:52:44.553Z,35.30
2023-05-11T18:55:11.143Z,31.15
2023-05-11T18:57:39.380Z,30.23
2023-05-11T19:00:07.197Z,30.73
2023-05-11T19:02:33.953Z,31.98
2023-05-11T19:05:01.203Z,30.02
2023-05-11T19:07:28.699Z,31.95
2023-05-11T19:09:55.452Z,29.95
2023-05-11T19:12:22.412Z,33.05
2023-05-11T19:14:48.966Z,33.38
2023-05-11T19:17:15.623Z,35.92
2023-05-11T19:19:42.250Z,36.78
2023-05-11T19:22:09.322Z,37.60
2023-05-11T19:24:36.174Z,38.60
2023-05-11T19:27:07.351Z,38.97
2023-05-11T19:29:35.322Z,40.35
2023-05-11T19:32:02.586Z,40.75
2023-05-11T19:34:29.227Z,45.63
2023-05-11T19:36:55.774Z,43.53
2023-05-11T19:39:22.397Z,44.95
2023-05-11T19:41:49.154Z,46.25
2023-05-11T19:44:15.862Z,42.67
2023-05-11T19:46:46.729Z,43.45
2023-05-11T19:49:15.064Z,41.90
2023-05-11T19:51:42.317Z,44.67
2023-05-11T19:54:09.513Z,43.15
2023-05-11T19:56:36.154Z,41.13
2023-05-11T19:59:03.794Z,42.85
2023-05-11T20:01:30.561Z,47.65
2023-05-11T20:03:57.693Z,45.90
2023-05-11T20:06:25.396Z,41.55
2023-05-11T20:08:52.711Z,45.15
2023-05-11T20:11:19.741Z,44.25
2023-05-11T20:13:47.639Z,48.33
2023-05-11T20:16:14.511Z,47.63
2023-05-11T20:18:41.392Z,41.83
2023-05-11T20:21:07.968Z,43.78
2023-05-11T20:23:35.937Z,44.45
2023-05-11T20:26:04.214Z,42.92
2023-05-11T20:28:31.008Z,41.20
2023-05-11T20:30:57.592Z,38.25
2023-05-11T20:35:53.806Z,35.22
2023-05-11T20:38:20.585Z,30.20
2023-05-11T20:40:47.207Z,28.85
2023-05-11T20:43:15.006Z,32.55
2023-05-11T20:45:41.967Z,26.45
2023-05-11T20:48:08.845Z,27.73
2023-05-11T20:50:35.506Z,21.08
2023-05-11T20:53:02.217Z,20.70
2023-05-11T20:55:28.983Z,23.38
2023-05-11T20:57:55.662Z,23.25
2023-05-11T21:00:22.557Z,18.83
2023-05-11T21:02:49.771Z,21.65
2023-05-11T21:05:17.058Z,21.80
2023-05-11T21:07:43.755Z,20.63
2023-05-11T21:10:11.994Z,19.05
2023-05-11T21:12:38.621Z,20.15
2023-05-11T21:15:06.849Z,18.77
2023-05-11T21:17:33.748Z,18.73
2023-05-11T21:20:00.435Z,18.67
2023-05-11T21:22:27.359Z,18.50
2023-05-11T21:24:57.019Z,17.77
2023-05-11T21:27:23.653Z,17.08
2023-05-11T21:29:51.138Z,17.10
2023-05-11T21:32:17.728Z,17.15
2023-05-11T21:34:44.663Z,17.45
2023-05-11T21:37:14.541Z,17.98
2023-05-11T21:39:42.071Z,18.20
2023-05-11T21:42:08.622Z,17.95
2023-05-11T21:44:35.437Z,17.65
2023-05-11T21:47:02.068Z,16.75
2023-05-11T21:49:28.718Z,17.27
2023-05-11T21:51:59.749Z,16.98
2023-05-11T21:57:10.709Z,16.95
2023-05-11T21:59:59.897Z,17.10
2023-05-11T22:02:36.656Z,18.00
2023-05-11T22:08:13.353Z,17.75
2023-05-11T22:13:44.786Z,16.05
2023-05-11T22:16:15.184Z,15.35
2023-05-11T22:21:35.068Z,14.77
2023-05-11T22:24:36.855Z,15.50
2023-05-11T22:27:23.153Z,14.80
2023-05-11T22:30:01.837Z,14.82
2023-05-11T22:38:24.517Z,14.32
2023-05-11T22:40:54.446Z,16.23
2023-05-11T22:43:29.374Z,15.77
2023-05-11T22:46:23.574Z,14.88
2023-05-11T22:51:37.417Z,14.77
2023-05-11T22:57:26.963Z,15.98
2023-05-11T23:00:02.573Z,16.33
2023-05-11T23:02:40.009Z,16.55
2023-05-11T23:05:12.521Z,18.83
2023-05-11T23:07:45.371Z,17.38
2023-05-11T23:13:15.837Z,18.73
2023-05-11T23:18:28.796Z,18.27
2023-05-11T23:21:03.421Z,17.77
2023-05-11T23:23:39.050Z,17.77
2023-05-11T23:26:20.875Z,19.63
2023-05-11T23:28:57.082Z,19.88
2023-05-11T23:31:35.688Z,20.55
2023-05-11T23:34:27.949Z,20.00
2023-05-11T23:36:58.911Z,21.73
2023-05-11T23:39:34.170Z,22.27
2023-05-11T23:42:15.077Z,24.33
2023-05-11T23:44:54.402Z,25.92
2023-05-11T23:50:34.145Z,24.95
2023-05-11T23:53:06.825Z,25.98
2023-05-11T23:55:43.542Z,29.30
2023-05-11T23:58:29.178Z,28.25
